地図

経路データ

SID SEASON NUMBER BASIN SUBBASIN NAME ISO_TIME NATURE LAT LON WMO_WIND WMO_PRES WMO_AGENCY TRACK_TYPE DIST2LAND LANDFALL IFLAG USA_AGENCY USA_ATCF_ID USA_LAT USA_LON USA_RECORD USA_STATUS USA_WIND USA_PRES USA_SSHS USA_R34_NE USA_R34_SE USA_R34_SW USA_R34_NW USA_R50_NE USA_R50_SE USA_R50_SW USA_R50_NW USA_R64_NE USA_R64_SE USA_R64_SW USA_R64_NW USA_POCI USA_ROCI USA_RMW USA_EYE TOKYO_LAT TOKYO_LON TOKYO_GRADE TOKYO_WIND TOKYO_PRES TOKYO_R50_DIR TOKYO_R50_LONG TOKYO_R50_SHORT TOKYO_R30_DIR TOKYO_R30_LONG TOKYO_R30_SHORT TOKYO_LAND CMA_LAT CMA_LON CMA_CAT CMA_WIND CMA_PRES HKO_LAT HKO_LON HKO_CAT HKO_WIND HKO_PRES NEWDELHI_LAT NEWDELHI_LON NEWDELHI_GRADE NEWDELHI_WIND NEWDELHI_PRES NEWDELHI_CI NEWDELHI_DP NEWDELHI_POCI REUNION_LAT REUNION_LON REUNION_TYPE REUNION_WIND REUNION_PRES REUNION_TNUM REUNION_CI REUNION_RMW REUNION_R34_NE REUNION_R34_SE REUNION_R34_SW REUNION_R34_NW REUNION_R50_NE REUNION_R50_SE REUNION_R50_SW REUNION_R50_NW REUNION_R64_NE REUNION_R64_SE REUNION_R64_SW REUNION_R64_NW BOM_LAT BOM_LON BOM_TYPE BOM_WIND BOM_PRES BOM_TNUM BOM_CI BOM_RMW BOM_R34_NE BOM_R34_SE BOM_R34_SW BOM_R34_NW BOM_R50_NE BOM_R50_SE BOM_R50_SW BOM_R50_NW BOM_R64_NE BOM_R64_SE BOM_R64_SW BOM_R64_NW BOM_ROCI BOM_POCI BOM_EYE BOM_POS_METHOD BOM_PRES_METHOD NADI_LAT NADI_LON NADI_CAT NADI_WIND NADI_PRES WELLINGTON_LAT WELLINGTON_LON WELLINGTON_WIND WELLINGTON_PRES DS824_LAT DS824_LON DS824_STAGE DS824_WIND DS824_PRES TD9636_LAT TD9636_LON TD9636_STAGE TD9636_WIND TD9636_PRES TD9635_LAT TD9635_LON TD9635_WIND TD9635_PRES TD9635_ROCI NEUMANN_LAT NEUMANN_LON NEUMANN_CLASS NEUMANN_WIND NEUMANN_PRES MLC_LAT MLC_LON MLC_CLASS MLC_WIND MLC_PRES USA_GUST BOM_GUST BOM_GUST_PER REUNION_GUST REUNION_GUST_PER USA_SEAHGT USA_SEARAD_NE USA_SEARAD_SE USA_SEARAD_SW USA_SEARAD_NW STORM_SPEED STORM_DIR
1975034S11105 1975 21 SI WA SHIRLEY 1975-02-03 00:00:00 TS -11.0000 105.000 20 1008 bom main 431 431 ______O__O__O_ -1 -11.0000 105.000 20 20 1008 1.00000 1.00000 -11.0000 105.000 TC 15 1008 -11.0000 105.000 TC 15 1008 3 0
1975034S11105 1975 21 SI WA SHIRLEY 1975-02-03 03:00:00 TS -11.1733 105.000 20 1008 bom main 452 452 ______O__P__P_ -1 -11.2000 105.000 20 1008 1.00000 -11.1600 105.000 TC 15 1008 -11.1600 105.000 TC 15 1008 3 0
1975034S11105 1975 21 SI WA SHIRLEY 1975-02-03 06:00:00 TS -11.3000 105.000 20 1008 bom main 463 463 ______O__O__O_ -1 -11.3000 105.000 20 1008 1.00000 -11.3000 105.000 TC 15 1008 -11.3000 105.000 TC 15 1008 2 0
1975034S11105 1975 21 SI WA SHIRLEY 1975-02-03 09:00:00 TS -11.4050 105.000 20 1008 bom main 473 473 ______O__P__P_ -1 -11.4000 105.000 20 1008 1.00000 -11.4075 105.000 TC 15 1008 -11.4075 105.000 TC 15 1008 2 188
1975034S11105 1975 21 SI WA SHIRLEY 1975-02-03 12:00:00 TS -11.5000 105.000 20 1008 bom main 484 484 ______O__O__O_ -1 -11.5000 105.000 20 1008 1.00000 -11.5000 105.000 TC 15 1008 -11.5000 105.000 TC 15 1008 2 0
1975034S11105 1975 21 SI WA SHIRLEY 1975-02-03 15:00:00 TS -11.5950 105.000 20 1008 bom main 494 494 ______O__P__P_ -1 -11.6000 105.000 20 1008 1.00000 -11.5925 105.000 TC 15 1008 -11.5925 105.000 TC 15 1008 2 172
1975034S11105 1975 21 SI WA SHIRLEY 1975-02-03 18:00:00 TS -11.7000 105.000 20 1008 bom main 505 505 ______O__O__O_ -1 -11.7000 105.000 20 1008 1.00000 -11.7000 105.000 TC 15 1008 -11.7000 105.000 TC 15 1008 2 175
1975034S11105 1975 21 SI WA SHIRLEY 1975-02-03 21:00:00 TS -11.8283 105.000 20 1008 bom main 516 516 ______O__P__P_ -1 -11.8000 105.000 20 1008 1.00000 -11.8425 105.000 TC 15 1007 -11.8425 105.000 TC 15 1007 3 0
1975034S11105 1975 21 SI WA SHIRLEY 1975-02-04 00:00:00 TS -12.0000 105.000 20 1007 bom main 537 537 ______O__O__O_ -1 -12.0000 105.000 20 1007 1.00000 1.00000 -12.0000 105.000 TC 15 1007 -12.0000 105.000 TC 15 1007 3 0
1975034S11105 1975 21 SI WA SHIRLEY 1975-02-04 03:00:00 TS -12.1717 105.000 25 1006 bom main 559 559 ______O__P__P_ -1 -12.2000 105.000 25 1006 1.50000 -12.1575 105.000 TC 17 1006 -12.1575 105.000 TC 17 1006 3 0
1975034S11105 1975 21 SI WA SHIRLEY 1975-02-04 06:00:00 TS -12.3000 105.000 25 1005 bom main 569 569 ______O__O__O_ -1 -12.3000 105.000 25 1005 1.50000 -12.3000 105.000 TC 20 1005 -12.3000 105.000 TC 20 1005 2 0
1975034S11105 1975 21 SI WA SHIRLEY 1975-02-04 09:00:00 TS -12.4000 105.000 25 1004 bom main 580 580 ______O__P__P_ -1 -12.4000 105.000 25 1004 1.50000 -12.4000 105.000 TC 22 1004 -12.4000 105.000 TC 22 1004 2 172
1975034S11105 1975 21 SI WA SHIRLEY 1975-02-04 12:00:00 TS -12.5000 105.000 25 1003 bom main 591 591 ______O__O__O_ -1 -12.5000 105.000 25 1003 2.00000 -12.5000 105.000 TC 25 1003 -12.5000 105.000 TC 25 1003 2 175
1975034S11105 1975 21 SI WA SHIRLEY 1975-02-04 15:00:00 TS -12.6333 105.000 25 1002 bom main 602 602 ______O__P__P_ -1 -12.6000 105.000 25 1002 2.00000 -12.6500 105.000 TC 27 1002 -12.6500 105.000 TC 25 1002 3 0
1975034S11105 1975 21 SI WA SHIRLEY 1975-02-04 18:00:00 TS -12.8000 105.000 25 1001 bom main 623 623 ______O__O__O_ -1 -12.8000 105.000 25 1001 2.00000 -12.8000 105.000 TC 30 1001 -12.8000 105.000 TC 25 1001 3 0
1975034S11105 1975 21 SI WA SHIRLEY 1975-02-04 21:00:00 TS -12.8900 105.010 25 1000 bom main 634 634 ______O__P__P_ -1 -12.9000 105.000 25 1000 2.00000 -12.8850 105.015 TC 30 1000 -12.8850 105.015 TC 27 1000 2 172
1975034S11105 1975 21 SI WA SHIRLEY 1975-02-05 00:00:00 TS -13.0000 105.000 30 999 bom main 645 645 ______O__O__O_ -1 -13.0000 105.000 30 999 2.50000 2.50000 -13.0000 105.000 TC 30 999 -13.0000 105.000 TC 30 999 3 197
1975034S11105 1975 21 SI WA SHIRLEY 1975-02-05 03:00:00 TS -13.2183 104.910 30 998 bom main 670 670 ______O__P__P_ -1 -13.2000 104.900 30 998 2.50000 -13.2275 104.915 TC 32 998 -13.2275 104.915 TC 32 998 5 201
1975034S11105 1975 21 SI WA SHIRLEY 1975-02-05 06:00:00 TS -13.5000 104.800 30 998 bom main 705 705 ______O__O__O_ -1 -13.5000 104.800 30 998 2.50000 -13.5000 104.800 TC 35 998 -13.5000 104.800 TC 35 998 6 202
1975034S11105 1975 21 SI WA SHIRLEY 1975-02-05 09:00:00 TS -13.7333 104.700 30 997 bom main 729 729 ______O__P__P_ -1 -13.7000 104.700 30 997 2.50000 -13.7500 104.700 TC 35 997 -13.7500 104.700 TC 35 997 5 201
1975034S11105 1975 21 SI WA SHIRLEY 1975-02-05 12:00:00 TS -14.0000 104.600 30 997 bom main 764 764 ______O__O__O_ -1 -14.0000 104.600 30 997 2.50000 -14.0000 104.600 TC 35 997 -14.0000 104.600 TC 35 997 5 201
1975034S11105 1975 21 SI WA SHIRLEY 1975-02-05 15:00:00 TS -14.2333 104.500 30 996 bom main 789 789 ______O__P__P_ -1 -14.2000 104.500 30 996 2.50000 -14.2500 104.500 TC 37 996 -14.2500 104.500 TC 37 996 5 201
1975034S11105 1975 21 SI WA SHIRLEY 1975-02-05 18:00:00 TS -14.5000 104.400 35 995 bom main 824 824 ______O__O__O_ -1 -14.5000 104.400 35 995 3.00000 -14.5000 104.400 TC 40 995 -14.5000 104.400 TC 40 995 5 201
1975034S11105 1975 21 SI WA SHIRLEY 1975-02-05 21:00:00 TS -14.7333 104.305 40 994 bom main 849 849 ______O__P__P_ -1 -14.7000 104.300 40 994 3.00000 -14.7500 104.307 TC 40 994 -14.7500 104.307 TC 40 994 5 201
1975034S11105 1975 21 SI WA SHIRLEY 1975-02-06 00:00:00 TS -15.0000 104.200 40 994 bom main 884 884 ______O__O__O_ -1 -15.0000 104.200 40 994 3.00000 3.00000 -15.0000 104.200 TC 40 994 -15.0000 104.200 TC 40 994 6 205
1975034S11105 1975 21 SI WA SHIRLEY 1975-02-06 03:00:00 TS -15.2667 104.043 40 992 bom main 922 922 ______O__P__P_ -1 -15.3000 104.000 40 992 3.00000 -15.2500 104.065 TC 42 992 -15.2500 104.065 TC 42 992 6 210
1975034S11105 1975 21 SI WA SHIRLEY 1975-02-06 06:00:00 TS -15.5000 103.900 45 991 bom main 947 947 ______O__O__O_ -1 -15.5000 103.900 45 991 3.00000 -15.5000 103.900 TC 45 991 -15.5000 103.900 TC 45 991 6 214
1975034S11105 1975 21 SI WA SHIRLEY 1975-02-06 09:00:00 TS -15.7617 103.700 45 989 bom main 985 985 ______O__P__P_ -1 -15.8000 103.700 45 989 3.00000 -15.7425 103.700 TC 47 989 -15.7425 103.700 TC 47 989 6 218
1975034S11105 1975 21 SI WA SHIRLEY 1975-02-06 12:00:00 TS -16.0000 103.500 50 988 bom main 1013 1013 ______O__O__O_ -1 -16.0000 103.500 50 988 3.50000 -16.0000 103.500 TC 50 988 -16.0000 103.500 TC 50 988 6 214
1975034S11105 1975 21 SI WA SHIRLEY 1975-02-06 15:00:00 TS -16.2900 103.333 50 986 bom main 1052 1052 ______O__P__P_ -1 -16.3000 103.300 50 986 3.50000 -16.2850 103.350 TC 52 986 -16.2850 103.350 TC 52 986 7 206
1975034S11105 1975 21 SI WA SHIRLEY 1975-02-06 18:00:00 TS -16.6000 103.200 55 984 bom main 1087 1087 ______O__O__O_ -1 -16.6000 103.200 55 984 4.00000 -16.6000 103.200 TC 55 984 -16.6000 103.200 TC 55 984 7 207
1975034S11105 1975 21 SI WA SHIRLEY 1975-02-06 21:00:00 TS -16.9484 102.990 55 982 bom main 1126 1126 ______O__P__P_ -1 -16.9000 103.000 55 982 4.00000 -16.9725 102.985 TC 57 982 -16.9725 102.985 TC 57 982 8 209
1975034S11105 1975 21 SI WA SHIRLEY 1975-02-07 00:00:00 TS -17.3000 102.800 55 981 bom main 1175 1175 ______O__O__O_ -1 -17.3000 102.800 55 981 4.00000 4.00000 -17.3000 102.800 TC 60 981 -17.3000 102.800 TC 60 981 6 204
1975034S11105 1975 21 SI WA SHIRLEY 1975-02-07 03:00:00 TS -17.4533 102.757 55 981 bom main 1196 1196 ______O__P__P_ -1 -17.4000 102.800 55 981 4.00000 -17.4800 102.735 TC 60 981 -17.4800 102.735 TC 60 981 3 197
1975034S11105 1975 21 SI WA SHIRLEY 1975-02-07 06:00:00 TS -17.6000 102.700 55 981 bom main 1210 1210 ______O__O__O_ -1 -17.6000 102.700 55 981 4.00000 -17.6000 102.700 TC 60 981 -17.6000 102.700 TC 60 981 3 207
1975034S11105 1975 21 SI WA SHIRLEY 1975-02-07 09:00:00 TS -17.7333 102.605 55 981 bom main 1224 1224 ______O__P__P_ -1 -17.7000 102.600 55 981 4.00000 -17.7500 102.608 TC 60 981 -17.7500 102.608 TC 60 981 4 212
1975034S11105 1975 21 SI WA SHIRLEY 1975-02-07 12:00:00 TS -17.9000 102.500 55 981 bom main 1249 1249 ______O__O__O_ -1 -17.9000 102.500 55 981 4.00000 -17.9000 102.500 TC 60 981 -17.9000 102.500 TC 60 981 4 214
1975034S11105 1975 21 SI WA SHIRLEY 1975-02-07 15:00:00 TS -18.0333 102.395 55 981 bom main 1263 1263 ______O__P__P_ -1 -18.0000 102.400 55 981 4.00000 -18.0500 102.393 TC 60 981 -18.0500 102.393 TC 60 981 4 212
1975034S11105 1975 21 SI WA SHIRLEY 1975-02-07 18:00:00 TS -18.2000 102.300 55 981 bom main 1275 1271 ______O__O__O_ -1 -18.2000 102.300 55 981 4.00000 -18.2000 102.300 TC 60 981 -18.2000 102.300 TC 60 981 3 205
1975034S11105 1975 21 SI WA SHIRLEY 1975-02-07 21:00:00 TS -18.3383 102.243 55 981 bom main 1280 1271 ______O__P__P_ -1 -18.3000 102.200 55 981 4.00000 -18.3575 102.265 TC 60 981 -18.3575 102.265 TC 60 981 3 197
1975034S11105 1975 21 SI WA SHIRLEY 1975-02-08 00:00:00 TS -18.5000 102.200 55 981 bom main 1271 1271 ______O__O__O_ -1 -18.5000 102.200 55 981 4.00000 4.00000 -18.5000 102.200 TC 60 981 -18.5000 102.200 TC 60 981 3 220
1975034S11105 1975 21 SI WA SHIRLEY 1975-02-08 03:00:00 TS -18.5950 102.020 55 981 bom main 1286 1286 ______O__P__P_ -1 -18.6000 102.000 55 981 4.00000 -18.5925 102.030 TC 57 982 -18.5925 102.030 TC 57 982 4 242
1975034S11105 1975 21 SI WA SHIRLEY 1975-02-08 06:00:00 TS -18.7000 101.800 55 984 bom main 1302 1302 ______O__O__O_ -1 -18.7000 101.800 55 984 4.00000 -18.7000 101.800 TC 55 984 -18.7000 101.800 TC 55 984 6 237
1975034S11105 1975 21 SI WA SHIRLEY 1975-02-08 09:00:00 TS -18.8950 101.533 50 986 bom main 1323 1319 ______O__P__P_ -1 -18.9000 101.500 50 986 3.50000 -18.8925 101.550 TC 52 985 -18.8925 101.550 TC 52 985 6 230
1975034S11105 1975 21 SI WA SHIRLEY 1975-02-08 12:00:00 TS -19.1000 101.300 50 987 bom main 1335 1335 ______O__O__O_ -1 -19.1000 101.300 50 987 3.50000 -19.1000 101.300 TC 50 987 -19.1000 101.300 TC 50 987 5 231
1975034S11105 1975 21 SI WA SHIRLEY 1975-02-08 15:00:00 TS -19.2333 101.095 45 989 bom main 1352 1348 ______O__P__P_ -1 -19.2000 101.100 45 989 3.00000 -19.2500 101.092 TC 47 989 -19.2500 101.092 TC 47 989 5 231
1975034S11105 1975 21 SI WA SHIRLEY 1975-02-08 18:00:00 TS -19.4000 100.900 45 991 bom main 1365 1361 ______O__O__O_ -1 -19.4000 100.900 45 991 3.00000 -19.4000 100.900 TC 45 991 -19.4000 100.900 TC 45 991 5 224
1975034S11105 1975 21 SI WA SHIRLEY 1975-02-08 21:00:00 TS -19.5999 100.720 40 993 bom main 1378 1375 ______O__P__P_ -1 -19.6000 100.700 40 993 3.00000 -19.5998 100.730 TC 42 992 -19.5998 100.730 TC 42 992 6 223
1975034S11105 1975 21 SI WA SHIRLEY 1975-02-09 00:00:00 TS -19.8000 100.500 40 994 bom main 1392 1392 ______O__O__O_ -1 -19.8000 100.500 40 994 3.00000 3.00000 -19.8000 100.500 TC 40 994 -19.8000 100.500 TC 40 994 7 237
1975034S11105 1975 21 SI WA SHIRLEY 1975-02-09 03:00:00 TS -19.9668 100.115 35 995 bom main 1427 1427 ______O__P__P_ -1 -20.0000 100.100 35 995 3.00000 -19.9501 100.122 TC 37 995 -19.9501 100.122 TC 37 995 8 248
1975034S11105 1975 21 SI WA SHIRLEY 1975-02-09 06:00:00 TS -20.1000 99.7000 30 997 bom main 1465 1465 ______O__O__O_ -1 -20.1000 99.7000 30 997 2.50000 -20.1000 99.7000 TC 35 997 -20.1000 99.7000 TC 35 997 8 245
1975034S11105 1975 21 SI WA SHIRLEY 1975-02-09 09:00:00 TS -20.2999 99.3383 30 998 bom main 1501 1501 ______O__P__P_ -1 -20.3000 99.3000 30 998 2.50000 -20.2998 99.3574 TC 32 998 -20.2998 99.3574 TC 32 998 8 239
1975034S11105 1975 21 SI WA SHIRLEY 1975-02-09 12:00:00 TS -20.5000 99.0000 30 999 bom main 1527 1527 ______O__O__O_ -1 -20.5000 99.0000 30 999 2.50000 -20.5000 99.0000 TC 30 999 -20.5000 99.0000 TC 30 999 8 244
1975034S11105 1975 21 SI WA SHIRLEY 1975-02-09 15:00:00 TS -20.6433 98.5767 25 1000 bom main 1565 1563 ______O__P__P_ -1 -20.6000 98.6000 25 1000 2.00000 -20.6650 98.5650 TC 30 1000 -20.6650 98.5650 TC 27 1000 9 250
1975034S11105 1975 21 SI WA SHIRLEY 1975-02-09 18:00:00 TS -20.8000 98.1000 25 1001 bom main 1612 1612 ______O__O__O_ -1 -20.8000 98.1000 25 1001 2.00000 -20.8000 98.1000 TC 30 1001 -20.8000 98.1000 TC 25 1001 9 253
1975034S11105 1975 21 SI WA SHIRLEY 1975-02-09 21:00:00 TS -20.9000 97.6516 25 1002 bom main 1651 1651 ______O__P__P_ -1 -20.9000 97.7000 25 1002 2.00000 -20.9000 97.6274 TC 27 1002 -20.9000 97.6274 TC 25 1002 9 257
1975034S11105 1975 21 SI WA SHIRLEY 1975-02-10 00:00:00 TS -21.0000 97.2000 25 1003 bom main 1701 1701 ______O__O__O_ -1 -21.0000 97.2000 25 1003 2.00000 2.00000 -21.0000 97.2000 TC 25 1003 -21.0000 97.2000 TC 25 1003 8 249
1975034S11105 1975 21 SI WA SHIRLEY 1975-02-10 03:00:00 TS -21.1665 96.8950 25 1003 bom main 1726 1726 ______O__P__P_ -1 -21.2000 96.9000 25 1003 2.00000 -21.1497 96.8924 TC 22 1003 -21.1497 96.8924 TC 22 1003 6 242
1975034S11105 1975 21 SI WA SHIRLEY 1975-02-10 06:00:00 TS -21.3000 96.6000 25 1004 bom main 1754 1754 ______O__O__O_ -1 -21.3000 96.6000 25 1004 2.00000 -21.3000 96.6000 TC 20 1004 -21.3000 96.6000 TC 20 1004 7 249
1975034S11105 1975 21 SI WA SHIRLEY 1975-02-10 09:00:00 TS -21.4100 96.2100 25 1004 bom main 1791 1791 ______O__P__P_ -1 -21.4000 96.2000 25 1004 2.00000 -21.4150 96.2150 TC 20 1004 -21.4150 96.2150 TC 20 1004 8 255
1975034S11105 1975 21 SI WA SHIRLEY 1975-02-10 12:00:00 TS -21.5000 95.8000 25 1005 bom main 1828 1828 ______O__O__O_ -1 -21.5000 95.8000 25 1005 1.50000 -21.5000 95.8000 TC 20 1005 -21.5000 95.8000 TC 20 1005 8 260
1975034S11105 1975 21 SI WA SHIRLEY 1975-02-10 15:00:00 TS -21.5382 95.4049 25 1005 bom main 1869 1869 ______O__P__P_ -1 -21.5000 95.4000 25 1005 1.50000 -21.5573 95.4074 TC 17 1005 -21.5573 95.4074 TC 17 1005 8 262
1975034S11105 1975 21 SI WA SHIRLEY 1975-02-10 18:00:00 TS -21.6000 95.0000 25 1006 bom main 1906 1906 ______O__O__O_ -1 -21.6000 95.0000 25 1006 1.50000 -21.6000 95.0000 TC 15 1006 -21.6000 95.0000 TC 15 1006 8 263
1975034S11105 1975 21 SI WA SHIRLEY 1975-02-10 21:00:00 TS -21.6384 94.5517 25 1006 bom main 1947 1947 ______O__P__P_ -1 -21.6000 94.6000 25 1006 1.50000 -21.6576 94.5276 TC 15 1006 -21.6576 94.5276 TC 15 1006 8 263
1975034S11105 1975 21 SI WA SHIRLEY 1975-02-11 00:00:00 TS -21.7000 94.1000 20 1007 bom main 1995 1995 ______O__O__O_ -1 -21.7000 94.1000 20 1007 1.00000 1.00000 -21.7000 94.1000 TC 15 1007 -21.7000 94.1000 TC 15 1007 7 265
1975034S11105 1975 21 SI WA SHIRLEY 1975-02-11 03:00:00 TS -21.6999 93.8466 20 1007 bom main 2025 2025 ______O__P__P_ -1 -21.7000 93.9000 20 1007 1.00000 -21.6998 93.8199 TC 15 1007 -21.6998 93.8199 TC 15 1007 5 270
1975034S11105 1975 21 SI WA SHIRLEY 1975-02-11 06:00:00 TS -21.7000 93.6000 20 1007 bom main 2045 2045 ______O__O__O_ -1 -21.7000 93.6000 20 1007 1.00000 -21.7000 93.6000 TC 15 1007 -21.7000 93.6000 TC 15 1007 5 262
1975034S11105 1975 21 SI WA SHIRLEY 1975-02-11 09:00:00 TS -21.7616 93.3667 20 1007 bom main 2063 2063 ______O__P__P_ -1 -21.8000 93.4000 20 1007 1.00000 -21.7425 93.3500 TC 15 1007 -21.7425 93.3500 TC 15 1007 5 258
1975034S11105 1975 21 SI WA SHIRLEY 1975-02-11 12:00:00 TS -21.8000 93.1000 20 1008 bom main 2093 2093 ______O__O__O_ -1 -21.8000 93.1000 20 1008 1.00000 -21.8000 93.1000 TC 15 1008 -21.8000 93.1000 TC 15 1008 5 261
1975034S11105 1975 21 SI WA SHIRLEY 1975-02-11 15:00:00 TS -21.8383 92.8667 20 1008 bom main 2113 2113 ______O__P__P_ -1 -21.8000 92.9000 20 1008 1.00000 -21.8575 92.8500 TC 15 1008 -21.8575 92.8500 TC 15 1008 5 258
1975034S11105 1975 21 SI WA SHIRLEY 1975-02-11 18:00:00 TS -21.9000 92.6000 20 1008 bom main 2141 2141 ______O__O__O_ -1 -21.9000 92.6000 20 1008 1.00000 -21.9000 92.6000 TC 15 1008 -21.9000 92.6000 TC 15 1008 5 262
1975034S11105 1975 21 SI WA SHIRLEY 1975-02-11 21:00:00 TS -21.9067 92.3666 20 1008 bom main 2162 2162 ______O__P__P_ -1 -21.9000 92.4000 20 1008 1.00000 -21.9101 92.3500 TC 15 1008 -21.9101 92.3500 TC 15 1008 5 270
1975034S11105 1975 21 SI WA SHIRLEY 1975-02-12 00:00:00 TS -21.9000 92.1000 20 1008 bom main 2192 ______O__O__O_ -1 -21.9000 92.1000 20 1008 1.00000 -21.9000 92.1000 TC 15 1008 -21.9000 92.1000 TC 15 1008 5 272

IBTrACS Databaseについて

本データベースは、米国NOAAが公開する1842年以降の世界の熱帯低気圧のベストトラックデータアーカイブInternational Best Track Archive for Climate Stewardship (IBTrACS)を、ウェブで閲覧しやすい形式に変換したものです。

最終更新日:2021-10-21